sensor_id;sensor_type;location;lat;lon;timestamp;P1;durP1;ratioP1;P2;durP2;ratioP2
31716;SDS011;18301;51.076;17.046;2023-01-09T00:00:41;40.17;;;19.48;;
31716;SDS011;18301;51.076;17.046;2023-01-09T00:05:43;38.30;;;19.00;;
31716;SDS011;18301;51.076;17.046;2023-01-09T00:10:45;38.42;;;19.70;;
31716;SDS011;18301;51.076;17.046;2023-01-09T00:15:49;43.35;;;20.00;;
31716;SDS011;18301;51.076;17.046;2023-01-09T00:20:51;45.20;;;20.17;;
31716;SDS011;18301;51.076;17.046;2023-01-09T00:26:03;45.00;;;21.50;;
31716;SDS011;18301;51.076;17.046;2023-01-09T00:31:09;42.47;;;20.25;;
31716;SDS011;18301;51.076;17.046;2023-01-09T00:36:11;43.78;;;21.25;;
31716;SDS011;18301;51.076;17.046;2023-01-09T00:41:14;48.72;;;22.48;;
31716;SDS011;18301;51.076;17.046;2023-01-09T00:46:20;52.42;;;23.58;;
31716;SDS011;18301;51.076;17.046;2023-01-09T00:51:31;45.92;;;22.30;;
31716;SDS011;18301;51.076;17.046;2023-01-09T00:56:33;48.38;;;23.65;;
31716;SDS011;18301;51.076;17.046;2023-01-09T01:01:35;52.65;;;24.00;;
31716;SDS011;18301;51.076;17.046;2023-01-09T01:06:37;56.95;;;26.48;;
31716;SDS011;18301;51.076;17.046;2023-01-09T01:11:57;51.13;;;25.70;;
31716;SDS011;18301;51.076;17.046;2023-01-09T01:16:58;58.40;;;27.27;;
31716;SDS011;18301;51.076;17.046;2023-01-09T01:22:00;58.10;;;27.17;;
31716;SDS011;18301;51.076;17.046;2023-01-09T01:27:02;58.30;;;26.55;;
31716;SDS011;18301;51.076;17.046;2023-01-09T01:32:04;56.72;;;27.63;;
31716;SDS011;18301;51.076;17.046;2023-01-09T01:37:05;61.90;;;27.42;;
31716;SDS011;18301;51.076;17.046;2023-01-09T01:42:07;58.05;;;26.73;;
31716;SDS011;18301;51.076;17.046;2023-01-09T01:47:12;55.50;;;26.75;;
31716;SDS011;18301;51.076;17.046;2023-01-09T01:52:14;59.95;;;27.75;;
31716;SDS011;18301;51.076;17.046;2023-01-09T01:57:17;59.65;;;27.30;;
31716;SDS011;18301;51.076;17.046;2023-01-09T02:02:19;57.75;;;26.70;;
31716;SDS011;18301;51.076;17.046;2023-01-09T02:07:23;58.97;;;27.30;;
31716;SDS011;18301;51.076;17.046;2023-01-09T02:12:25;56.22;;;26.63;;
31716;SDS011;18301;51.076;17.046;2023-01-09T02:34:25;55.58;;;27.58;;
31716;SDS011;18301;51.076;17.046;2023-01-09T02:39:41;56.85;;;26.27;;
31716;SDS011;18301;51.076;17.046;2023-01-09T02:44:51;54.38;;;24.67;;
31716;SDS011;18301;51.076;17.046;2023-01-09T02:49:54;49.42;;;22.88;;
31716;SDS011;18301;51.076;17.046;2023-01-09T02:55:01;52.35;;;25.38;;
31716;SDS011;18301;51.076;17.046;2023-01-09T03:05:24;49.20;;;23.88;;
31716;SDS011;18301;51.076;17.046;2023-01-09T03:15:42;49.60;;;23.02;;
31716;SDS011;18301;51.076;17.046;2023-01-09T03:20:46;52.13;;;23.83;;
31716;SDS011;18301;51.076;17.046;2023-01-09T03:25:49;45.40;;;22.13;;
31716;SDS011;18301;51.076;17.046;2023-01-09T03:30:51;48.45;;;21.40;;
31716;SDS011;18301;51.076;17.046;2023-01-09T03:35:52;49.00;;;24.70;;
31716;SDS011;18301;51.076;17.046;2023-01-09T03:40:54;49.70;;;22.85;;
31716;SDS011;18301;51.076;17.046;2023-01-09T03:45:55;43.90;;;21.70;;
31716;SDS011;18301;51.076;17.046;2023-01-09T03:50:57;42.40;;;20.42;;
31716;SDS011;18301;51.076;17.046;2023-01-09T03:55:58;41.35;;;20.75;;
31716;SDS011;18301;51.076;17.046;2023-01-09T04:01:01;42.13;;;20.63;;
31716;SDS011;18301;51.076;17.046;2023-01-09T04:06:05;42.03;;;20.75;;
31716;SDS011;18301;51.076;17.046;2023-01-09T04:11:07;40.88;;;20.42;;
31716;SDS011;18301;51.076;17.046;2023-01-09T04:16:08;45.33;;;20.17;;
31716;SDS011;18301;51.076;17.046;2023-01-09T04:21:10;41.83;;;20.80;;
31716;SDS011;18301;51.076;17.046;2023-01-09T04:26:11;44.03;;;21.90;;
31716;SDS011;18301;51.076;17.046;2023-01-09T04:31:14;42.17;;;21.38;;
31716;SDS011;18301;51.076;17.046;2023-01-09T04:36:15;42.05;;;21.60;;
31716;SDS011;18301;51.076;17.046;2023-01-09T04:41:23;44.33;;;21.77;;
31716;SDS011;18301;51.076;17.046;2023-01-09T04:46:43;42.00;;;21.15;;
31716;SDS011;18301;51.076;17.046;2023-01-09T04:51:45;43.25;;;21.00;;
31716;SDS011;18301;51.076;17.046;2023-01-09T04:56:47;44.72;;;20.50;;
31716;SDS011;18301;51.076;17.046;2023-01-09T05:01:48;42.45;;;21.17;;
31716;SDS011;18301;51.076;17.046;2023-01-09T05:06:52;45.03;;;21.17;;
31716;SDS011;18301;51.076;17.046;2023-01-09T05:11:54;46.88;;;22.73;;
31716;SDS011;18301;51.076;17.046;2023-01-09T05:16:55;54.38;;;27.80;;
31716;SDS011;18301;51.076;17.046;2023-01-09T05:21:57;48.67;;;25.85;;
31716;SDS011;18301;51.076;17.046;2023-01-09T05:26:58;46.53;;;24.30;;
31716;SDS011;18301;51.076;17.046;2023-01-09T05:31:59;44.20;;;21.55;;
31716;SDS011;18301;51.076;17.046;2023-01-09T05:37:01;48.50;;;22.92;;
31716;SDS011;18301;51.076;17.046;2023-01-09T05:42:03;48.35;;;21.80;;
31716;SDS011;18301;51.076;17.046;2023-01-09T05:47:04;44.25;;;21.30;;
31716;SDS011;18301;51.076;17.046;2023-01-09T05:52:06;43.45;;;21.52;;
31716;SDS011;18301;51.076;17.046;2023-01-09T05:57:08;42.33;;;20.10;;
31716;SDS011;18301;51.076;17.046;2023-01-09T06:02:10;42.33;;;21.20;;
31716;SDS011;18301;51.076;17.046;2023-01-09T06:07:11;41.40;;;21.13;;
31716;SDS011;18301;51.076;17.046;2023-01-09T06:12:19;41.92;;;21.38;;
31716;SDS011;18301;51.076;17.046;2023-01-09T06:17:21;42.30;;;21.38;;
31716;SDS011;18301;51.076;17.046;2023-01-09T06:22:22;38.25;;;19.73;;
31716;SDS011;18301;51.076;17.046;2023-01-09T06:27:24;40.03;;;19.58;;
31716;SDS011;18301;51.076;17.046;2023-01-09T06:32:25;40.38;;;19.02;;
31716;SDS011;18301;51.076;17.046;2023-01-09T06:37:27;40.03;;;19.25;;
31716;SDS011;18301;51.076;17.046;2023-01-09T06:42:28;39.22;;;19.60;;
31716;SDS011;18301;51.076;17.046;2023-01-09T06:47:30;37.95;;;18.05;;
31716;SDS011;18301;51.076;17.046;2023-01-09T06:52:31;36.15;;;19.50;;
31716;SDS011;18301;51.076;17.046;2023-01-09T06:57:33;35.97;;;18.73;;
31716;SDS011;18301;51.076;17.046;2023-01-09T07:02:34;38.08;;;20.00;;
31716;SDS011;18301;51.076;17.046;2023-01-09T07:07:39;40.22;;;19.60;;
31716;SDS011;18301;51.076;17.046;2023-01-09T07:12:41;43.47;;;20.63;;
31716;SDS011;18301;51.076;17.046;2023-01-09T07:17:42;39.45;;;19.35;;
31716;SDS011;18301;51.076;17.046;2023-01-09T07:22:44;36.55;;;19.00;;
31716;SDS011;18301;51.076;17.046;2023-01-09T07:27:46;36.80;;;18.77;;
31716;SDS011;18301;51.076;17.046;2023-01-09T07:32:48;31.63;;;16.50;;
31716;SDS011;18301;51.076;17.046;2023-01-09T07:37:49;40.00;;;18.15;;
31716;SDS011;18301;51.076;17.046;2023-01-09T07:42:51;36.47;;;18.98;;
31716;SDS011;18301;51.076;17.046;2023-01-09T07:47:53;40.53;;;21.75;;
31716;SDS011;18301;51.076;17.046;2023-01-09T07:52:55;40.42;;;21.20;;
31716;SDS011;18301;51.076;17.046;2023-01-09T07:57:56;41.75;;;20.95;;
31716;SDS011;18301;51.076;17.046;2023-01-09T08:02:57;46.45;;;22.85;;
31716;SDS011;18301;51.076;17.046;2023-01-09T08:07:59;44.67;;;22.90;;
31716;SDS011;18301;51.076;17.046;2023-01-09T08:13:02;42.35;;;22.45;;
31716;SDS011;18301;51.076;17.046;2023-01-09T08:18:03;49.42;;;23.35;;
31716;SDS011;18301;51.076;17.046;2023-01-09T08:23:05;46.78;;;21.75;;
31716;SDS011;18301;51.076;17.046;2023-01-09T08:28:06;44.95;;;22.95;;
31716;SDS011;18301;51.076;17.046;2023-01-09T08:33:09;43.33;;;22.60;;
31716;SDS011;18301;51.076;17.046;2023-01-09T08:38:11;42.45;;;22.70;;
31716;SDS011;18301;51.076;17.046;2023-01-09T08:43:13;42.88;;;20.27;;
31716;SDS011;18301;51.076;17.046;2023-01-09T08:48:33;38.60;;;20.13;;
31716;SDS011;18301;51.076;17.046;2023-01-09T08:53:34;39.17;;;19.83;;
31716;SDS011;18301;51.076;17.046;2023-01-09T08:58:35;33.53;;;18.80;;
31716;SDS011;18301;51.076;17.046;2023-01-09T09:03:37;32.97;;;16.15;;
31716;SDS011;18301;51.076;17.046;2023-01-09T09:08:38;35.22;;;17.70;;
31716;SDS011;18301;51.076;17.046;2023-01-09T09:13:40;31.42;;;16.15;;
31716;SDS011;18301;51.076;17.046;2023-01-09T09:18:41;31.35;;;15.77;;
31716;SDS011;18301;51.076;17.046;2023-01-09T09:23:43;30.45;;;16.52;;
31716;SDS011;18301;51.076;17.046;2023-01-09T09:28:44;33.35;;;16.08;;
31716;SDS011;18301;51.076;17.046;2023-01-09T09:33:46;29.65;;;15.77;;
31716;SDS011;18301;51.076;17.046;2023-01-09T09:38:47;37.13;;;16.88;;
31716;SDS011;18301;51.076;17.046;2023-01-09T09:49:39;39.17;;;19.30;;
31716;SDS011;18301;51.076;17.046;2023-01-09T09:54:57;41.88;;;20.35;;
31716;SDS011;18301;51.076;17.046;2023-01-09T10:00:03;39.33;;;20.67;;
31716;SDS011;18301;51.076;17.046;2023-01-09T10:05:11;35.35;;;16.55;;
31716;SDS011;18301;51.076;17.046;2023-01-09T10:10:19;29.25;;;15.57;;
31716;SDS011;18301;51.076;17.046;2023-01-09T10:15:29;27.48;;;14.85;;
31716;SDS011;18301;51.076;17.046;2023-01-09T10:20:47;26.88;;;14.93;;
31716;SDS011;18301;51.076;17.046;2023-01-09T10:26:09;31.40;;;15.48;;
31716;SDS011;18301;51.076;17.046;2023-01-09T10:31:33;33.50;;;17.35;;
31716;SDS011;18301;51.076;17.046;2023-01-09T10:47:44;32.28;;;16.25;;
31716;SDS011;18301;51.076;17.046;2023-01-09T10:52:48;30.67;;;17.63;;
31716;SDS011;18301;51.076;17.046;2023-01-09T10:57:52;32.13;;;16.85;;
31716;SDS011;18301;51.076;17.046;2023-01-09T11:02:58;27.85;;;15.75;;
31716;SDS011;18301;51.076;17.046;2023-01-09T11:08:05;29.92;;;15.18;;
31716;SDS011;18301;51.076;17.046;2023-01-09T11:13:22;28.85;;;15.38;;
31716;SDS011;18301;51.076;17.046;2023-01-09T11:18:25;32.50;;;15.75;;
31716;SDS011;18301;51.076;17.046;2023-01-09T11:23:28;34.05;;;16.50;;
31716;SDS011;18301;51.076;17.046;2023-01-09T11:28:31;34.45;;;17.08;;
31716;SDS011;18301;51.076;17.046;2023-01-09T11:33:35;30.63;;;16.20;;
31716;SDS011;18301;51.076;17.046;2023-01-09T11:38:54;28.77;;;16.05;;
31716;SDS011;18301;51.076;17.046;2023-01-09T11:43:57;33.50;;;18.50;;
31716;SDS011;18301;51.076;17.046;2023-01-09T11:49:01;33.97;;;18.33;;
31716;SDS011;18301;51.076;17.046;2023-01-09T11:59:29;34.28;;;17.02;;
31716;SDS011;18301;51.076;17.046;2023-01-09T12:15:12;35.70;;;19.43;;
31716;SDS011;18301;51.076;17.046;2023-01-09T12:31:31;18.65;;;10.65;;
31716;SDS011;18301;51.076;17.046;2023-01-09T12:53:26;9.98;;;6.68;;
31716;SDS011;18301;51.076;17.046;2023-01-09T12:58:35;11.68;;;5.90;;
31716;SDS011;18301;51.076;17.046;2023-01-09T13:03:45;9.80;;;6.40;;
31716;SDS011;18301;51.076;17.046;2023-01-09T13:14:20;8.85;;;5.35;;
31716;SDS011;18301;51.076;17.046;2023-01-09T13:19:32;7.60;;;5.32;;
31716;SDS011;18301;51.076;17.046;2023-01-09T13:24:50;9.77;;;5.15;;
31716;SDS011;18301;51.076;17.046;2023-01-09T13:35:18;10.20;;;6.40;;
31716;SDS011;18301;51.076;17.046;2023-01-09T13:45:27;11.35;;;6.53;;
31716;SDS011;18301;51.076;17.046;2023-01-09T13:50:31;11.52;;;6.75;;
31716;SDS011;18301;51.076;17.046;2023-01-09T13:55:32;11.43;;;7.05;;
31716;SDS011;18301;51.076;17.046;2023-01-09T14:15:43;11.35;;;6.53;;
31716;SDS011;18301;51.076;17.046;2023-01-09T14:20:54;12.50;;;6.47;;
31716;SDS011;18301;51.076;17.046;2023-01-09T14:25:58;10.73;;;6.18;;
31716;SDS011;18301;51.076;17.046;2023-01-09T14:31:02;12.00;;;7.07;;
31716;SDS011;18301;51.076;17.046;2023-01-09T14:36:18;11.20;;;7.03;;
31716;SDS011;18301;51.076;17.046;2023-01-09T14:41:35;12.75;;;7.38;;
31716;SDS011;18301;51.076;17.046;2023-01-09T14:57:25;15.05;;;7.78;;
31716;SDS011;18301;51.076;17.046;2023-01-09T15:02:30;12.95;;;7.72;;
31716;SDS011;18301;51.076;17.046;2023-01-09T15:07:35;13.30;;;7.60;;
31716;SDS011;18301;51.076;17.046;2023-01-09T15:12:44;12.43;;;7.55;;
31716;SDS011;18301;51.076;17.046;2023-01-09T15:17:52;12.80;;;6.32;;
31716;SDS011;18301;51.076;17.046;2023-01-09T15:23:03;10.45;;;6.28;;
31716;SDS011;18301;51.076;17.046;2023-01-09T15:28:22;10.55;;;5.80;;
31716;SDS011;18301;51.076;17.046;2023-01-09T15:33:32;10.95;;;5.72;;
31716;SDS011;18301;51.076;17.046;2023-01-09T15:38:34;8.35;;;5.20;;
31716;SDS011;18301;51.076;17.046;2023-01-09T15:43:40;7.47;;;4.72;;
31716;SDS011;18301;51.076;17.046;2023-01-09T15:48:43;8.85;;;5.18;;
31716;SDS011;18301;51.076;17.046;2023-01-09T15:53:45;8.05;;;4.82;;
31716;SDS011;18301;51.076;17.046;2023-01-09T15:58:52;9.73;;;5.50;;
31716;SDS011;18301;51.076;17.046;2023-01-09T16:03:55;10.00;;;6.07;;
31716;SDS011;18301;51.076;17.046;2023-01-09T16:19:29;8.25;;;5.28;;
31716;SDS011;18301;51.076;17.046;2023-01-09T16:24:45;10.70;;;6.00;;
31716;SDS011;18301;51.076;17.046;2023-01-09T16:29:49;9.93;;;5.78;;
31716;SDS011;18301;51.076;17.046;2023-01-09T16:34:59;13.30;;;6.50;;
31716;SDS011;18301;51.076;17.046;2023-01-09T16:45:13;8.90;;;6.10;;
31716;SDS011;18301;51.076;17.046;2023-01-09T16:50:15;11.80;;;6.65;;
31716;SDS011;18301;51.076;17.046;2023-01-09T16:55:17;15.93;;;8.15;;
31716;SDS011;18301;51.076;17.046;2023-01-09T17:00:18;15.02;;;7.90;;
31716;SDS011;18301;51.076;17.046;2023-01-09T17:05:21;15.43;;;8.73;;
31716;SDS011;18301;51.076;17.046;2023-01-09T17:10:23;16.27;;;8.63;;
31716;SDS011;18301;51.076;17.046;2023-01-09T17:15:25;15.93;;;8.90;;
31716;SDS011;18301;51.076;17.046;2023-01-09T17:20:27;12.27;;;6.95;;
31716;SDS011;18301;51.076;17.046;2023-01-09T17:25:29;14.30;;;7.38;;
31716;SDS011;18301;51.076;17.046;2023-01-09T17:30:50;12.68;;;7.50;;
31716;SDS011;18301;51.076;17.046;2023-01-09T17:35:51;15.15;;;8.25;;
31716;SDS011;18301;51.076;17.046;2023-01-09T17:40:53;13.02;;;8.10;;
31716;SDS011;18301;51.076;17.046;2023-01-09T17:45:57;17.25;;;8.35;;
31716;SDS011;18301;51.076;17.046;2023-01-09T17:51:00;17.17;;;8.50;;
31716;SDS011;18301;51.076;17.046;2023-01-09T17:56:01;14.30;;;7.88;;
31716;SDS011;18301;51.076;17.046;2023-01-09T18:01:05;14.65;;;8.30;;
31716;SDS011;18301;51.076;17.046;2023-01-09T18:06:07;17.25;;;8.70;;
31716;SDS011;18301;51.076;17.046;2023-01-09T18:11:11;13.70;;;8.10;;
31716;SDS011;18301;51.076;17.046;2023-01-09T18:16:15;14.02;;;7.50;;
31716;SDS011;18301;51.076;17.046;2023-01-09T18:21:20;14.38;;;8.00;;
31716;SDS011;18301;51.076;17.046;2023-01-09T18:26:23;16.60;;;8.82;;
31716;SDS011;18301;51.076;17.046;2023-01-09T18:31:25;13.95;;;7.63;;
31716;SDS011;18301;51.076;17.046;2023-01-09T18:36:28;17.52;;;8.75;;
31716;SDS011;18301;51.076;17.046;2023-01-09T18:41:30;15.02;;;7.97;;
31716;SDS011;18301;51.076;17.046;2023-01-09T18:46:32;17.60;;;8.88;;
31716;SDS011;18301;51.076;17.046;2023-01-09T18:51:33;15.15;;;8.88;;
31716;SDS011;18301;51.076;17.046;2023-01-09T18:56:36;16.38;;;9.15;;
31716;SDS011;18301;51.076;17.046;2023-01-09T19:01:38;19.27;;;10.50;;
31716;SDS011;18301;51.076;17.046;2023-01-09T19:06:39;26.23;;;14.20;;
31716;SDS011;18301;51.076;17.046;2023-01-09T19:11:41;20.58;;;12.48;;
31716;SDS011;18301;51.076;17.046;2023-01-09T19:16:44;19.60;;;10.77;;
31716;SDS011;18301;51.076;17.046;2023-01-09T19:21:46;21.92;;;11.05;;
31716;SDS011;18301;51.076;17.046;2023-01-09T19:26:47;21.10;;;10.43;;
31716;SDS011;18301;51.076;17.046;2023-01-09T19:31:49;15.25;;;9.27;;
31716;SDS011;18301;51.076;17.046;2023-01-09T19:36:53;16.85;;;9.15;;
31716;SDS011;18301;51.076;17.046;2023-01-09T19:41:54;18.00;;;9.93;;
31716;SDS011;18301;51.076;17.046;2023-01-09T19:46:56;19.95;;;10.13;;
31716;SDS011;18301;51.076;17.046;2023-01-09T19:51:57;23.77;;;12.10;;
31716;SDS011;18301;51.076;17.046;2023-01-09T19:57:00;28.10;;;13.27;;
31716;SDS011;18301;51.076;17.046;2023-01-09T20:02:02;38.13;;;18.33;;
31716;SDS011;18301;51.076;17.046;2023-01-09T20:07:03;42.75;;;21.08;;
31716;SDS011;18301;51.076;17.046;2023-01-09T20:12:06;37.35;;;20.75;;
31716;SDS011;18301;51.076;17.046;2023-01-09T20:17:07;47.67;;;23.45;;
31716;SDS011;18301;51.076;17.046;2023-01-09T20:22:09;47.00;;;23.48;;
31716;SDS011;18301;51.076;17.046;2023-01-09T20:27:10;43.35;;;21.95;;
31716;SDS011;18301;51.076;17.046;2023-01-09T20:32:12;43.38;;;21.40;;
31716;SDS011;18301;51.076;17.046;2023-01-09T20:37:13;45.72;;;22.25;;
31716;SDS011;18301;51.076;17.046;2023-01-09T20:42:14;42.80;;;21.77;;
31716;SDS011;18301;51.076;17.046;2023-01-09T20:47:16;44.50;;;20.90;;
31716;SDS011;18301;51.076;17.046;2023-01-09T20:52:17;39.17;;;20.60;;
31716;SDS011;18301;51.076;17.046;2023-01-09T20:57:19;46.33;;;22.25;;
31716;SDS011;18301;51.076;17.046;2023-01-09T21:02:20;46.45;;;23.15;;
31716;SDS011;18301;51.076;17.046;2023-01-09T21:07:23;45.03;;;21.67;;
31716;SDS011;18301;51.076;17.046;2023-01-09T21:12:25;44.35;;;23.83;;
31716;SDS011;18301;51.076;17.046;2023-01-09T21:17:35;44.95;;;22.20;;
31716;SDS011;18301;51.076;17.046;2023-01-09T21:22:39;42.47;;;21.25;;
31716;SDS011;18301;51.076;17.046;2023-01-09T21:27:40;44.45;;;23.00;;
31716;SDS011;18301;51.076;17.046;2023-01-09T21:32:44;44.88;;;22.42;;
31716;SDS011;18301;51.076;17.046;2023-01-09T21:37:45;46.58;;;23.80;;
31716;SDS011;18301;51.076;17.046;2023-01-09T21:42:47;45.65;;;22.77;;
31716;SDS011;18301;51.076;17.046;2023-01-09T21:48:07;49.35;;;23.85;;
31716;SDS011;18301;51.076;17.046;2023-01-09T21:53:08;52.20;;;24.55;;
31716;SDS011;18301;51.076;17.046;2023-01-09T21:58:10;51.78;;;23.45;;
31716;SDS011;18301;51.076;17.046;2023-01-09T22:03:15;57.95;;;25.25;;
31716;SDS011;18301;51.076;17.046;2023-01-09T22:08:17;58.95;;;26.88;;
31716;SDS011;18301;51.076;17.046;2023-01-09T22:13:18;56.17;;;27.13;;
31716;SDS011;18301;51.076;17.046;2023-01-09T22:18:20;51.17;;;24.27;;
31716;SDS011;18301;51.076;17.046;2023-01-09T22:23:22;50.35;;;24.73;;
31716;SDS011;18301;51.076;17.046;2023-01-09T22:28:23;45.15;;;22.77;;
31716;SDS011;18301;51.076;17.046;2023-01-09T22:33:25;46.03;;;22.58;;
31716;SDS011;18301;51.076;17.046;2023-01-09T22:38:26;43.10;;;23.02;;
31716;SDS011;18301;51.076;17.046;2023-01-09T22:43:28;52.47;;;26.08;;
31716;SDS011;18301;51.076;17.046;2023-01-09T22:48:30;46.92;;;24.73;;
31716;SDS011;18301;51.076;17.046;2023-01-09T22:53:32;52.55;;;25.50;;
31716;SDS011;18301;51.076;17.046;2023-01-09T22:58:34;47.28;;;23.35;;
31716;SDS011;18301;51.076;17.046;2023-01-09T23:03:36;48.55;;;24.38;;
31716;SDS011;18301;51.076;17.046;2023-01-09T23:08:38;48.97;;;25.10;;
31716;SDS011;18301;51.076;17.046;2023-01-09T23:13:40;48.55;;;24.33;;
31716;SDS011;18301;51.076;17.046;2023-01-09T23:18:41;53.00;;;25.05;;
31716;SDS011;18301;51.076;17.046;2023-01-09T23:23:43;46.72;;;21.83;;
31716;SDS011;18301;51.076;17.046;2023-01-09T23:28:45;40.17;;;19.05;;
31716;SDS011;18301;51.076;17.046;2023-01-09T23:33:46;36.08;;;17.08;;
31716;SDS011;18301;51.076;17.046;2023-01-09T23:38:48;34.60;;;16.65;;
31716;SDS011;18301;51.076;17.046;2023-01-09T23:43:49;34.30;;;15.68;;
31716;SDS011;18301;51.076;17.046;2023-01-09T23:48:51;27.17;;;14.32;;
31716;SDS011;18301;51.076;17.046;2023-01-09T23:53:52;29.83;;;14.20;;
31716;SDS011;18301;51.076;17.046;2023-01-09T23:58:53;25.08;;;12.40;;
